sensor_id;sensor_type;location;lat;lon;timestamp;pressure;altitude;pressure_sealevel;temperature;humidity
64064;BME280;50314;50.618;10.642;2023-03-14T00:02:02;94677.69;;;16.59;23.67
64064;BME280;50314;50.618;10.642;2023-03-14T00:04:28;94672.56;;;16.58;23.58
64064;BME280;50314;50.618;10.642;2023-03-14T00:06:53;94669.91;;;16.58;23.58
64064;BME280;50314;50.618;10.642;2023-03-14T00:09:19;94695.66;;;16.57;23.52
64064;BME280;50314;50.618;10.642;2023-03-14T00:11:44;94701.78;;;16.58;23.49
64064;BME280;50314;50.618;10.642;2023-03-14T00:14:09;94707.94;;;16.58;23.53
64064;BME280;50314;50.618;10.642;2023-03-14T00:16:35;94720.59;;;16.56;23.58
64064;BME280;50314;50.618;10.642;2023-03-14T00:19:01;94745.34;;;16.57;23.59
64064;BME280;50314;50.618;10.642;2023-03-14T00:21:26;94769.25;;;16.57;23.64
64064;BME280;50314;50.618;10.642;2023-03-14T00:23:52;94786.22;;;16.56;23.57
64064;BME280;50314;50.618;10.642;2023-03-14T00:26:19;94786.22;;;16.56;23.48
64064;BME280;50314;50.618;10.642;2023-03-14T00:28:45;94776.59;;;16.55;23.59
64064;BME280;50314;50.618;10.642;2023-03-14T00:31:13;94782.75;;;16.55;23.37
64064;BME280;50314;50.618;10.642;2023-03-14T00:33:39;94770.47;;;16.54;23.43
64064;BME280;50314;50.618;10.642;2023-03-14T00:36:07;94777.63;;;16.54;23.51
64064;BME280;50314;50.618;10.642;2023-03-14T00:38:34;94787.44;;;16.53;23.42
64064;BME280;50314;50.618;10.642;2023-03-14T00:41:03;94807.06;;;16.52;23.49
64064;BME280;50314;50.618;10.642;2023-03-14T00:43:28;94793.75;;;16.52;23.51
64064;BME280;50314;50.618;10.642;2023-03-14T00:45:54;94788.63;;;16.51;23.56
64064;BME280;50314;50.618;10.642;2023-03-14T00:48:20;94785.97;;;16.51;23.51
64064;BME280;50314;50.618;10.642;2023-03-14T00:50:46;94787.63;;;16.52;23.67
64064;BME280;50314;50.618;10.642;2023-03-14T00:53:12;94776.16;;;16.51;23.56
64064;BME280;50314;50.618;10.642;2023-03-14T00:55:39;94767.38;;;16.51;23.67
64064;BME280;50314;50.618;10.642;2023-03-14T00:58:05;94767.38;;;16.51;23.47
64064;BME280;50314;50.618;10.642;2023-03-14T01:00:31;94762.28;;;16.49;23.42
64064;BME280;50314;50.618;10.642;2023-03-14T01:02:57;94776.38;;;16.50;23.47
64064;BME280;50314;50.618;10.642;2023-03-14T01:05:23;94774.75;;;16.49;23.53
64064;BME280;50314;50.618;10.642;2023-03-14T01:07:48;94765.97;;;16.48;23.53
64064;BME280;50314;50.618;10.642;2023-03-14T01:10:14;94770.41;;;16.48;23.52
64064;BME280;50314;50.618;10.642;2023-03-14T01:12:40;94770.41;;;16.48;23.53
64064;BME280;50314;50.618;10.642;2023-03-14T01:15:06;94769.59;;;16.47;23.55
64064;BME280;50314;50.618;10.642;2023-03-14T01:17:32;94766.13;;;16.47;23.56
64064;BME280;50314;50.618;10.642;2023-03-14T01:19:57;94759.19;;;16.46;23.55
64064;BME280;50314;50.618;10.642;2023-03-14T01:22:23;94754.06;;;16.44;23.53
64064;BME280;50314;50.618;10.642;2023-03-14T01:24:48;94739.97;;;16.43;23.49
64064;BME280;50314;50.618;10.642;2023-03-14T01:27:14;94740.97;;;16.42;23.27
64064;BME280;50314;50.618;10.642;2023-03-14T01:29:39;94744.44;;;16.43;23.49
64064;BME280;50314;50.618;10.642;2023-03-14T01:32:05;94734.84;;;16.42;23.29
64064;BME280;50314;50.618;10.642;2023-03-14T01:34:30;94723.41;;;16.41;23.46
64064;BME280;50314;50.618;10.642;2023-03-14T01:36:55;94728.72;;;16.41;23.48
64064;BME280;50314;50.618;10.642;2023-03-14T01:39:21;94728.91;;;16.40;23.41
64064;BME280;50314;50.618;10.642;2023-03-14T01:41:46;94721.97;;;16.39;23.51
64064;BME280;50314;50.618;10.642;2023-03-14T01:44:12;94707.88;;;16.38;23.51
64064;BME280;50314;50.618;10.642;2023-03-14T01:46:42;94697.25;;;16.38;23.33
64064;BME280;50314;50.618;10.642;2023-03-14T01:49:33;94692.50;;;16.34;23.58
64064;BME280;50314;50.618;10.642;2023-03-14T01:52:18;94691.69;;;16.33;23.55
64064;BME280;50314;50.618;10.642;2023-03-14T01:54:49;94696.59;;;16.36;23.53
64064;BME280;50314;50.618;10.642;2023-03-14T01:57:46;94685.78;;;16.31;23.65
64064;BME280;50314;50.618;10.642;2023-03-14T02:00:18;94679.03;;;16.35;23.63
64064;BME280;50314;50.618;10.642;2023-03-14T02:02:50;94679.44;;;16.32;23.51
64064;BME280;50314;50.618;10.642;2023-03-14T02:05:23;94677.38;;;16.34;23.50
64064;BME280;50314;50.618;10.642;2023-03-14T02:07:51;94680.03;;;16.34;23.58
64064;BME280;50314;50.618;10.642;2023-03-14T02:10:20;94677.38;;;16.34;23.52
64064;BME280;50314;50.618;10.642;2023-03-14T02:12:48;94677.38;;;16.34;23.70
64064;BME280;50314;50.618;10.642;2023-03-14T02:15:14;94669.41;;;16.34;23.65
64064;BME280;50314;50.618;10.642;2023-03-14T02:17:41;94662.47;;;16.33;23.45
64064;BME280;50314;50.618;10.642;2023-03-14T02:22:58;94662.84;;;16.30;23.57
64064;BME280;50314;50.618;10.642;2023-03-14T02:28:43;94643.84;;;16.27;23.61
64064;BME280;50314;50.618;10.642;2023-03-14T02:31:09;94640.38;;;16.26;23.68
64064;BME280;50314;50.618;10.642;2023-03-14T02:33:35;94642.00;;;16.27;23.45
64064;BME280;50314;50.618;10.642;2023-03-14T02:36:05;94644.66;;;16.27;23.62
64064;BME280;50314;50.618;10.642;2023-03-14T02:38:45;94654.69;;;16.25;23.47
64064;BME280;50314;50.618;10.642;2023-03-14T02:41:11;94652.63;;;16.27;23.52
64064;BME280;50314;50.618;10.642;2023-03-14T02:43:37;94659.78;;;16.27;23.51
64064;BME280;50314;50.618;10.642;2023-03-14T02:46:03;94651.81;;;16.27;23.73
64064;BME280;50314;50.618;10.642;2023-03-14T02:48:34;94649.38;;;16.25;23.64
64064;BME280;50314;50.618;10.642;2023-03-14T02:51:01;94635.88;;;16.27;23.64
64064;BME280;50314;50.618;10.642;2023-03-14T02:53:32;94637.94;;;16.25;23.63
64064;BME280;50314;50.618;10.642;2023-03-14T02:55:58;94622.81;;;16.25;23.46
64064;BME280;50314;50.618;10.642;2023-03-14T02:58:24;94609.72;;;16.24;23.53
64064;BME280;50314;50.618;10.642;2023-03-14T03:00:50;94610.53;;;16.24;23.33
64064;BME280;50314;50.618;10.642;2023-03-14T03:03:16;94607.06;;;16.24;23.56
64064;BME280;50314;50.618;10.642;2023-03-14T03:05:41;94598.28;;;16.23;23.58
64064;BME280;50314;50.618;10.642;2023-03-14T03:08:10;94593.78;;;16.24;23.65
64064;BME280;50314;50.618;10.642;2023-03-14T03:10:35;94594.81;;;16.23;23.48
64064;BME280;50314;50.618;10.642;2023-03-14T03:13:01;94593.16;;;16.22;23.53
64064;BME280;50314;50.618;10.642;2023-03-14T03:15:27;94604.59;;;16.22;23.62
64064;BME280;50314;50.618;10.642;2023-03-14T03:17:53;94589.66;;;16.21;23.66
64064;BME280;50314;50.618;10.642;2023-03-14T03:20:18;94598.66;;;16.20;23.58
64064;BME280;50314;50.618;10.642;2023-03-14T03:22:43;94602.34;;;16.19;23.54
64064;BME280;50314;50.618;10.642;2023-03-14T03:25:09;94598.66;;;16.20;23.49
64064;BME280;50314;50.618;10.642;2023-03-14T03:27:36;94601.31;;;16.20;23.53
64064;BME280;50314;50.618;10.642;2023-03-14T03:30:04;94590.91;;;16.18;23.59
64064;BME280;50314;50.618;10.642;2023-03-14T03:32:30;94597.84;;;16.19;23.74
64064;BME280;50314;50.618;10.642;2023-03-14T03:34:55;94591.72;;;16.19;23.56
64064;BME280;50314;50.618;10.642;2023-03-14T03:37:21;94586.41;;;16.19;23.59
64064;BME280;50314;50.618;10.642;2023-03-14T03:39:46;94582.72;;;16.20;23.56
64064;BME280;50314;50.618;10.642;2023-03-14T03:42:11;94582.13;;;16.18;23.50
64064;BME280;50314;50.618;10.642;2023-03-14T03:44:37;94574.16;;;16.18;23.43
64064;BME280;50314;50.618;10.642;2023-03-14T03:47:03;94575.16;;;16.17;23.60
64064;BME280;50314;50.618;10.642;2023-03-14T03:49:31;94591.09;;;16.17;23.54
64064;BME280;50314;50.618;10.642;2023-03-14T03:51:58;94577.81;;;16.17;23.56
64064;BME280;50314;50.618;10.642;2023-03-14T03:54:23;94576.19;;;16.16;23.46
64064;BME280;50314;50.618;10.642;2023-03-14T03:56:49;94577.22;;;16.15;23.35
64064;BME280;50314;50.618;10.642;2023-03-14T03:59:14;94563.94;;;16.15;23.47
64064;BME280;50314;50.618;10.642;2023-03-14T04:01:40;94562.28;;;16.14;23.67
64064;BME280;50314;50.618;10.642;2023-03-14T04:04:05;94562.28;;;16.14;23.71
64064;BME280;50314;50.618;10.642;2023-03-14T04:06:31;94562.28;;;16.14;23.58
64064;BME280;50314;50.618;10.642;2023-03-14T04:08:56;94559.84;;;16.12;23.56
64064;BME280;50314;50.618;10.642;2023-03-14T04:11:22;94560.66;;;16.13;23.71
64064;BME280;50314;50.618;10.642;2023-03-14T04:13:47;94564.34;;;16.12;23.48
64064;BME280;50314;50.618;10.642;2023-03-14T04:16:18;94567.97;;;16.11;23.73
64064;BME280;50314;50.618;10.642;2023-03-14T04:18:44;94573.25;;;16.11;23.61
64064;BME280;50314;50.618;10.642;2023-03-14T04:21:09;94554.69;;;16.11;23.46
64064;BME280;50314;50.618;10.642;2023-03-14T04:23:35;94551.22;;;16.10;23.60
64064;BME280;50314;50.618;10.642;2023-03-14T04:26:00;94556.53;;;16.10;23.70
64064;BME280;50314;50.618;10.642;2023-03-14T04:28:26;94545.91;;;16.10;23.67
64064;BME280;50314;50.618;10.642;2023-03-14T04:30:51;94544.28;;;16.09;23.59
64064;BME280;50314;50.618;10.642;2023-03-14T04:33:17;94525.91;;;16.08;23.42
64064;BME280;50314;50.618;10.642;2023-03-14T04:35:46;94540.00;;;16.08;23.61
64064;BME280;50314;50.618;10.642;2023-03-14T04:38:12;94543.47;;;16.09;23.59
64064;BME280;50314;50.618;10.642;2023-03-14T04:40:39;94540.00;;;16.08;23.41
64064;BME280;50314;50.618;10.642;2023-03-14T04:43:05;94540.16;;;16.00;23.75
64064;BME280;50314;50.618;10.642;2023-03-14T04:45:30;94539.34;;;16.06;23.62
64064;BME280;50314;50.618;10.642;2023-03-14T04:47:56;94533.22;;;16.06;23.70
64064;BME280;50314;50.618;10.642;2023-03-14T04:50:21;94539.34;;;16.06;23.67
64064;BME280;50314;50.618;10.642;2023-03-14T04:52:47;94527.91;;;16.06;23.71
64064;BME280;50314;50.618;10.642;2023-03-14T04:55:13;94523.63;;;16.05;23.56
64064;BME280;50314;50.618;10.642;2023-03-14T04:57:38;94527.28;;;16.04;23.40
64064;BME280;50314;50.618;10.642;2023-03-14T05:00:04;94522.81;;;16.04;23.73
64064;BME280;50314;50.618;10.642;2023-03-14T05:02:33;94520.97;;;16.05;23.54
64064;BME280;50314;50.618;10.642;2023-03-14T05:04:59;94517.69;;;16.03;23.56
64064;BME280;50314;50.618;10.642;2023-03-14T05:07:25;94528.31;;;16.03;23.74
64064;BME280;50314;50.618;10.642;2023-03-14T05:09:50;94514.41;;;16.01;23.38
64064;BME280;50314;50.618;10.642;2023-03-14T05:12:16;94514.22;;;16.02;23.62
64064;BME280;50314;50.618;10.642;2023-03-14T05:14:41;94502.78;;;16.02;23.65
64064;BME280;50314;50.618;10.642;2023-03-14T05:17:07;94515.25;;;16.01;23.62
64064;BME280;50314;50.618;10.642;2023-03-14T05:19:32;94513.41;;;16.02;23.77
64064;BME280;50314;50.618;10.642;2023-03-14T05:21:58;94511.75;;;16.01;23.61
64064;BME280;50314;50.618;10.642;2023-03-14T05:24:23;94503.59;;;16.02;23.60
64064;BME280;50314;50.618;10.642;2023-03-14T05:26:48;94507.91;;;16.03;23.76
64064;BME280;50314;50.618;10.642;2023-03-14T05:29:14;94514.22;;;16.02;23.65
64064;BME280;50314;50.618;10.642;2023-03-14T05:31:39;94510.94;;;16.00;23.67
64064;BME280;50314;50.618;10.642;2023-03-14T05:34:05;94516.06;;;16.02;23.57
64064;BME280;50314;50.618;10.642;2023-03-14T05:36:30;94515.44;;;16.00;23.57
64064;BME280;50314;50.618;10.642;2023-03-14T05:38:56;94510.94;;;16.00;23.58
64064;BME280;50314;50.618;10.642;2023-03-14T05:41:21;94516.06;;;16.02;23.80
64064;BME280;50314;50.618;10.642;2023-03-14T05:43:47;94510.75;;;16.02;23.76
64064;BME280;50314;50.618;10.642;2023-03-14T05:46:12;94517.91;;;16.01;23.71
64064;BME280;50314;50.618;10.642;2023-03-14T05:48:38;94518.91;;;16.00;23.77
64064;BME280;50314;50.618;10.642;2023-03-14T05:51:04;94517.06;;;16.01;23.65
64064;BME280;50314;50.618;10.642;2023-03-14T05:53:29;94518.72;;;16.02;23.66
64064;BME280;50314;50.618;10.642;2023-03-14T05:55:55;94518.72;;;16.02;23.84
64064;BME280;50314;50.618;10.642;2023-03-14T05:58:22;94518.88;;;15.93;23.84
64064;BME280;50314;50.618;10.642;2023-03-14T06:00:48;94513.00;;;15.98;23.89
64064;BME280;50314;50.618;10.642;2023-03-14T06:03:14;94512.78;;;16.00;23.87
64064;BME280;50314;50.618;10.642;2023-03-14T06:05:39;94507.47;;;16.00;23.61
64064;BME280;50314;50.618;10.642;2023-03-14T06:08:05;94505.44;;;16.02;23.78
64064;BME280;50314;50.618;10.642;2023-03-14T06:10:30;94501.97;;;16.01;23.56
64064;BME280;50314;50.618;10.642;2023-03-14T06:12:56;94505.44;;;16.02;23.76
64064;BME280;50314;50.618;10.642;2023-03-14T06:15:21;94501.78;;;16.03;23.84
64064;BME280;50314;50.618;10.642;2023-03-14T06:17:47;94500.97;;;16.02;23.64
64064;BME280;50314;50.618;10.642;2023-03-14T06:20:12;94498.09;;;16.04;23.75
64064;BME280;50314;50.618;10.642;2023-03-14T06:22:38;94489.13;;;16.05;23.86
64064;BME280;50314;50.618;10.642;2023-03-14T06:25:05;94483.00;;;16.04;23.68
64064;BME280;50314;50.618;10.642;2023-03-14T06:27:30;94480.13;;;16.06;23.88
64064;BME280;50314;50.618;10.642;2023-03-14T06:29:56;94472.97;;;16.06;23.84
64064;BME280;50314;50.618;10.642;2023-03-14T06:32:24;94482.78;;;16.06;24.05
64064;BME280;50314;50.618;10.642;2023-03-14T06:34:50;94473.78;;;16.07;24.09
64064;BME280;50314;50.618;10.642;2023-03-14T06:37:15;94467.47;;;16.08;23.95
64064;BME280;50314;50.618;10.642;2023-03-14T06:39:41;94463.78;;;16.09;24.06
64064;BME280;50314;50.618;10.642;2023-03-14T06:42:06;94469.09;;;16.09;23.84
64064;BME280;50314;50.618;10.642;2023-03-14T06:44:32;94467.28;;;16.09;23.96
64064;BME280;50314;50.618;10.642;2023-03-14T06:46:57;94469.91;;;16.09;23.95
64064;BME280;50314;50.618;10.642;2023-03-14T06:49:23;94454.00;;;16.09;24.10
64064;BME280;50314;50.618;10.642;2023-03-14T06:51:48;94472.34;;;16.11;24.10
64064;BME280;50314;50.618;10.642;2023-03-14T06:54:14;94463.44;;;16.12;24.16
64064;BME280;50314;50.618;10.642;2023-03-14T06:56:39;94467.06;;;16.11;24.23
64064;BME280;50314;50.618;10.642;2023-03-14T06:59:06;94464.41;;;16.11;24.07
64064;BME280;50314;50.618;10.642;2023-03-14T07:01:31;94468.75;;;16.12;24.00
64064;BME280;50314;50.618;10.642;2023-03-14T07:04:00;94479.38;;;16.12;24.23
64064;BME280;50314;50.618;10.642;2023-03-14T07:06:26;94474.88;;;16.12;24.10
64064;BME280;50314;50.618;10.642;2023-03-14T07:08:54;94465.06;;;16.13;23.97
64064;BME280;50314;50.618;10.642;2023-03-14T07:11:20;94464.03;;;16.14;24.04
64064;BME280;50314;50.618;10.642;2023-03-14T07:13:46;94462.22;;;16.14;24.06
64064;BME280;50314;50.618;10.642;2023-03-14T07:16:11;94450.75;;;16.14;23.97
64064;BME280;50314;50.618;10.642;2023-03-14T07:18:36;94452.41;;;16.15;24.05
64064;BME280;50314;50.618;10.642;2023-03-14T07:21:02;94447.91;;;16.15;24.12
64064;BME280;50314;50.618;10.642;2023-03-14T07:23:28;94446.88;;;16.16;24.01
64064;BME280;50314;50.618;10.642;2023-03-14T07:25:54;94445.03;;;16.17;24.05
64064;BME280;50314;50.618;10.642;2023-03-14T07:28:20;94448.50;;;16.17;23.98
64064;BME280;50314;50.618;10.642;2023-03-14T07:30:46;94442.19;;;16.18;24.16
64064;BME280;50314;50.618;10.642;2023-03-14T07:33:12;94444.03;;;16.18;23.95
64064;BME280;50314;50.618;10.642;2023-03-14T07:35:38;94446.47;;;16.19;24.02
64064;BME280;50314;50.618;10.642;2023-03-14T07:38:03;94446.47;;;16.19;24.06
64064;BME280;50314;50.618;10.642;2023-03-14T07:40:29;94444.63;;;16.20;24.10
64064;BME280;50314;50.618;10.642;2023-03-14T07:42:54;94446.25;;;16.21;24.02
64064;BME280;50314;50.618;10.642;2023-03-14T07:45:20;94438.28;;;16.21;24.03
64064;BME280;50314;50.618;10.642;2023-03-14T07:47:46;94442.59;;;16.22;24.04
64064;BME280;50314;50.618;10.642;2023-03-14T07:50:11;94450.34;;;16.24;24.00
64064;BME280;50314;50.618;10.642;2023-03-14T07:52:37;94440.53;;;16.24;24.06
64064;BME280;50314;50.618;10.642;2023-03-14T07:55:02;94441.38;;;16.25;23.89
64064;BME280;50314;50.618;10.642;2023-03-14T07:57:28;94443.81;;;16.26;23.72
64064;BME280;50314;50.618;10.642;2023-03-14T07:59:53;94439.31;;;16.27;24.08
64064;BME280;50314;50.618;10.642;2023-03-14T08:02:19;94453.41;;;16.27;23.87
64064;BME280;50314;50.618;10.642;2023-03-14T08:04:47;94448.09;;;16.27;24.19
64064;BME280;50314;50.618;10.642;2023-03-14T08:07:13;94451.56;;;16.28;24.18
64064;BME280;50314;50.618;10.642;2023-03-14T08:09:38;94453.41;;;16.27;24.00
64064;BME280;50314;50.618;10.642;2023-03-14T08:12:04;94448.72;;;16.29;24.27
64064;BME280;50314;50.618;10.642;2023-03-14T08:14:29;94454.84;;;16.30;23.92
64064;BME280;50314;50.618;10.642;2023-03-14T08:16:56;94463.63;;;16.30;24.11
64064;BME280;50314;50.618;10.642;2023-03-14T08:19:21;94463.47;;;16.32;23.90
64064;BME280;50314;50.618;10.642;2023-03-14T08:21:47;94460.78;;;16.32;24.10
64064;BME280;50314;50.618;10.642;2023-03-14T08:24:12;94466.13;;;16.32;24.07
64064;BME280;50314;50.618;10.642;2023-03-14T08:26:38;94449.16;;;16.33;23.96
64064;BME280;50314;50.618;10.642;2023-03-14T08:29:03;94456.91;;;16.34;23.85
64064;BME280;50314;50.618;10.642;2023-03-14T08:31:30;94463.88;;;16.35;23.88
64064;BME280;50314;50.618;10.642;2023-03-14T08:33:58;94455.91;;;16.35;23.85
64064;BME280;50314;50.618;10.642;2023-03-14T08:36:24;94454.88;;;16.36;24.05
64064;BME280;50314;50.618;10.642;2023-03-14T08:38:50;94466.31;;;16.37;23.87
64064;BME280;50314;50.618;10.642;2023-03-14T08:41:15;94463.47;;;16.38;23.87
64064;BME280;50314;50.618;10.642;2023-03-14T08:43:41;94466.94;;;16.39;23.78
64064;BME280;50314;50.618;10.642;2023-03-14T08:46:06;94470.41;;;16.39;23.98
64064;BME280;50314;50.618;10.642;2023-03-14T08:48:32;94472.03;;;16.40;23.79
64064;BME280;50314;50.618;10.642;2023-03-14T08:51:07;94474.91;;;16.39;24.00
64064;BME280;50314;50.618;10.642;2023-03-14T08:53:33;94468.38;;;16.41;24.03
64064;BME280;50314;50.618;10.642;2023-03-14T08:55:59;94467.53;;;16.41;23.88
64064;BME280;50314;50.618;10.642;2023-03-14T08:58:24;94478.78;;;16.43;23.94
64064;BME280;50314;50.618;10.642;2023-03-14T09:00:50;94476.94;;;16.43;23.71
64064;BME280;50314;50.618;10.642;2023-03-14T09:03:15;94480.63;;;16.42;24.44
64064;BME280;50314;50.618;10.642;2023-03-14T09:05:41;94472.84;;;16.41;24.21
64064;BME280;50314;50.618;10.642;2023-03-14T09:08:06;94479.00;;;16.41;24.26
64064;BME280;50314;50.618;10.642;2023-03-14T09:10:32;94473.69;;;16.41;24.20
64064;BME280;50314;50.618;10.642;2023-03-14T09:12:57;94469.19;;;16.42;24.15
64064;BME280;50314;50.618;10.642;2023-03-14T09:15:24;94465.50;;;16.43;24.15
64064;BME280;50314;50.618;10.642;2023-03-14T09:17:49;94467.94;;;16.44;23.96
64064;BME280;50314;50.618;10.642;2023-03-14T09:20:15;94459.97;;;16.44;24.29
64064;BME280;50314;50.618;10.642;2023-03-14T09:22:40;94469.59;;;16.46;24.40
64064;BME280;50314;50.618;10.642;2023-03-14T09:25:06;94463.47;;;16.45;24.58
64064;BME280;50314;50.618;10.642;2023-03-14T09:27:32;94466.31;;;16.43;24.57
64064;BME280;50314;50.618;10.642;2023-03-14T09:29:57;94469.59;;;16.46;24.64
64064;BME280;50314;50.618;10.642;2023-03-14T09:32:23;94471.22;;;16.47;24.76
64064;BME280;50314;50.618;10.642;2023-03-14T09:34:48;94471.22;;;16.47;24.74
64064;BME280;50314;50.618;10.642;2023-03-14T09:37:14;94474.50;;;16.49;24.64
64064;BME280;50314;50.618;10.642;2023-03-14T09:39:41;94480.22;;;16.46;24.65
64064;BME280;50314;50.618;10.642;2023-03-14T09:42:08;94481.03;;;16.53;24.62
64064;BME280;50314;50.618;10.642;2023-03-14T09:44:53;94470.00;;;16.56;24.53
64064;BME280;50314;50.618;10.642;2023-03-14T09:47:20;94478.16;;;16.61;24.43
64064;BME280;50314;50.618;10.642;2023-03-14T09:49:46;94479.81;;;16.62;24.35
64064;BME280;50314;50.618;10.642;2023-03-14T09:52:24;94478.38;;;16.59;24.24
64064;BME280;50314;50.618;10.642;2023-03-14T09:55:05;94482.47;;;16.62;24.26
64064;BME280;50314;50.618;10.642;2023-03-14T09:57:33;94479.41;;;16.65;24.34
64064;BME280;50314;50.618;10.642;2023-03-14T10:02:42;94477.34;;;16.67;24.30
64064;BME280;50314;50.618;10.642;2023-03-14T10:05:15;94465.91;;;16.66;24.30
64064;BME280;50314;50.618;10.642;2023-03-14T10:07:41;94471.41;;;16.72;24.20
64064;BME280;50314;50.618;10.642;2023-03-14T10:10:26;94465.69;;;16.68;24.37
64064;BME280;50314;50.618;10.642;2023-03-14T10:12:59;94475.72;;;16.73;24.39
64064;BME280;50314;50.618;10.642;2023-03-14T10:15:30;94470.00;;;16.76;24.37
64064;BME280;50314;50.618;10.642;2023-03-14T10:17:59;94477.16;;;16.75;24.34
64064;BME280;50314;50.618;10.642;2023-03-14T10:20:37;94478.56;;;16.78;24.13
64064;BME280;50314;50.618;10.642;2023-03-14T10:23:16;94482.69;;;16.80;24.24
64064;BME280;50314;50.618;10.642;2023-03-14T10:25:46;94471.25;;;16.80;24.21
64064;BME280;50314;50.618;10.642;2023-03-14T10:28:26;94480.84;;;16.81;24.17
64064;BME280;50314;50.618;10.642;2023-03-14T10:30:53;94484.72;;;16.85;24.31
64064;BME280;50314;50.618;10.642;2023-03-14T10:33:26;94485.97;;;16.82;24.11
64064;BME280;50314;50.618;10.642;2023-03-14T10:35:57;94488.22;;;16.85;24.12
64064;BME280;50314;50.618;10.642;2023-03-14T10:38:33;94486.38;;;16.86;24.05
64064;BME280;50314;50.618;10.642;2023-03-14T10:40:59;94492.09;;;16.89;24.26
64064;BME280;50314;50.618;10.642;2023-03-14T10:43:32;94481.88;;;16.86;24.11
64064;BME280;50314;50.618;10.642;2023-03-14T10:46:08;94471.00;;;16.88;24.08
64064;BME280;50314;50.618;10.642;2023-03-14T10:48:36;94482.06;;;16.91;24.11
64064;BME280;50314;50.618;10.642;2023-03-14T10:54:15;94488.63;;;16.89;24.12
64064;BME280;50314;50.618;10.642;2023-03-14T10:56:44;94478.97;;;16.95;24.02
64064;BME280;50314;50.618;10.642;2023-03-14T10:59:14;94481.84;;;16.93;24.18
64064;BME280;50314;50.618;10.642;2023-03-14T11:01:47;94481.44;;;16.96;23.93
64064;BME280;50314;50.618;10.642;2023-03-14T11:04:43;94474.47;;;16.95;24.33
64064;BME280;50314;50.618;10.642;2023-03-14T11:07:39;94479.59;;;16.97;24.07
64064;BME280;50314;50.618;10.642;2023-03-14T11:23:23;94459.75;;;17.12;24.07
64064;BME280;50314;50.618;10.642;2023-03-14T11:26:00;94470.38;;;17.19;24.00
64064;BME280;50314;50.618;10.642;2023-03-14T11:28:36;94469.09;;;17.22;23.90
64064;BME280;50314;50.618;10.642;2023-03-14T11:31:31;94465.03;;;17.26;24.07
64064;BME280;50314;50.618;10.642;2023-03-14T11:34:05;94467.88;;;17.31;23.90
64064;BME280;50314;50.618;10.642;2023-03-14T11:39:11;94455.75;;;17.35;23.89
64064;BME280;50314;50.618;10.642;2023-03-14T11:41:43;94461.47;;;17.38;23.76
64064;BME280;50314;50.618;10.642;2023-03-14T11:47:25;94461.69;;;17.44;23.72
64064;BME280;50314;50.618;10.642;2023-03-14T11:50:16;94455.31;;;17.45;23.80
64064;BME280;50314;50.618;10.642;2023-03-14T11:52:48;94447.97;;;17.53;23.79
64064;BME280;50314;50.618;10.642;2023-03-14T11:55:21;94453.28;;;17.53;23.80
64064;BME280;50314;50.618;10.642;2023-03-14T11:57:51;94444.66;;;17.58;23.58
64064;BME280;50314;50.618;10.642;2023-03-14T12:00:24;94448.13;;;17.58;23.60
64064;BME280;50314;50.618;10.642;2023-03-14T12:05:48;94438.28;;;17.59;24.08
64064;BME280;50314;50.618;10.642;2023-03-14T12:08:42;94439.72;;;17.61;23.75
64064;BME280;50314;50.618;10.642;2023-03-14T12:11:32;94449.56;;;17.61;23.93
64064;BME280;50314;50.618;10.642;2023-03-14T12:14:00;94451.38;;;17.67;23.81
64064;BME280;50314;50.618;10.642;2023-03-14T12:16:31;94448.72;;;17.67;24.19
64064;BME280;50314;50.618;10.642;2023-03-14T12:19:24;94446.88;;;17.68;23.91
64064;BME280;50314;50.618;10.642;2023-03-14T12:22:05;94449.91;;;17.71;24.03
64064;BME280;50314;50.618;10.642;2023-03-14T12:24:35;94458.09;;;17.76;24.07
64064;BME280;50314;50.618;10.642;2023-03-14T12:27:04;94442.72;;;17.78;23.95
64064;BME280;50314;50.618;10.642;2023-03-14T12:29:31;94440.66;;;17.80;24.17
64064;BME280;50314;50.618;10.642;2023-03-14T12:32:21;94427.13;;;17.82;23.79
64064;BME280;50314;50.618;10.642;2023-03-14T12:34:48;94442.28;;;17.81;23.87
64064;BME280;50314;50.618;10.642;2023-03-14T12:37:33;94441.09;;;17.77;23.96
64064;BME280;50314;50.618;10.642;2023-03-14T12:40:17;94438.25;;;17.72;24.24
64064;BME280;50314;50.618;10.642;2023-03-14T12:42:57;94440.31;;;17.70;24.03
64064;BME280;50314;50.618;10.642;2023-03-14T12:45:30;94445.22;;;17.73;24.10
64064;BME280;50314;50.618;10.642;2023-03-14T12:48:14;94444.81;;;17.70;24.38
64064;BME280;50314;50.618;10.642;2023-03-14T12:50:53;94443.00;;;17.64;24.56
64064;BME280;50314;50.618;10.642;2023-03-14T12:53:51;94441.16;;;17.64;24.59
64064;BME280;50314;50.618;10.642;2023-03-14T13:04:43;94448.88;;;17.72;24.05
64064;BME280;50314;50.618;10.642;2023-03-14T13:09:57;94438.03;;;17.74;24.24
64064;BME280;50314;50.618;10.642;2023-03-14T13:12:28;94441.50;;;17.74;24.31
64064;BME280;50314;50.618;10.642;2023-03-14T13:14:58;94445.81;;;17.75;24.19
64064;BME280;50314;50.618;10.642;2023-03-14T13:17:33;94441.72;;;17.73;24.04
64064;BME280;50314;50.618;10.642;2023-03-14T13:20:03;94439.47;;;17.76;24.18
64064;BME280;50314;50.618;10.642;2023-03-14T13:22:33;94445.59;;;17.77;24.27
64064;BME280;50314;50.618;10.642;2023-03-14T13:25:01;94442.13;;;17.76;23.93
64064;BME280;50314;50.618;10.642;2023-03-14T13:27:30;94444.78;;;17.76;23.93
64064;BME280;50314;50.618;10.642;2023-03-14T13:29:56;94435.75;;;17.77;23.89
64064;BME280;50314;50.618;10.642;2023-03-14T13:32:26;94436.81;;;17.76;24.02
64064;BME280;50314;50.618;10.642;2023-03-14T13:34:56;94439.47;;;17.76;23.91
64064;BME280;50314;50.618;10.642;2023-03-14T13:37:23;94447.22;;;17.78;24.07
64064;BME280;50314;50.618;10.642;2023-03-14T13:39:54;94443.94;;;17.76;24.03
64064;BME280;50314;50.618;10.642;2023-03-14T13:42:21;94447.22;;;17.78;24.03